Time;durP1;ratioP1;P1;durP2;ratioP2;P2;SDS_P1;SDS_P2;PMS_P1;PMS_P2;Temp;Humidity;BMP_temperature;BMP_pressure;BME280_temperature;BME280_humidity;BME280_pressure;Samples;Min_cycle;Max_cycle;Signal;HPM_P1;HPM_P2
2022/05/18 00:00:16;;;;;;;1.60;0.90;;;;;;;7.22;41.07;101131.98;130320;1267;108764;-72
2022/05/18 00:03:44;;;;;;;2.10;1.00;;;;;;;7.14;41.15;101135.97;130291;1266;108635;-73
2022/05/18 00:06:49;;;;;;;2.00;1.00;;;;;;;7.05;41.36;101139.71;130456;1266;108610;-73
2022/05/18 00:09:56;;;;;;;2.30;1.00;;;;;;;6.97;41.41;101137.80;130343;1267;109026;-73
2022/05/18 00:13:01;;;;;;;1.70;1.00;;;;;;;6.89;41.57;101142.13;130338;1266;108865;-73
2022/05/18 00:16:07;;;;;;;1.50;1.00;;;;;;;6.77;41.77;101150.71;130302;1267;109034;-73
2022/05/18 00:19:13;;;;;;;1.60;0.80;;;;;;;6.68;41.95;101154.00;130313;1266;107373;-72
2022/05/18 00:22:18;;;;;;;2.10;1.00;;;;;;;6.60;42.09;101156.67;130304;1267;108690;-73
2022/05/18 00:25:27;;;;;;;2.10;1.10;;;;;;;6.53;41.92;101156.95;130313;1267;108181;-72
2022/05/18 00:28:33;;;;;;;2.00;1.30;;;;;;;6.45;42.10;101161.76;130356;1267;109075;-73
2022/05/18 00:31:40;;;;;;;2.30;1.00;;;;;;;6.36;42.14;101163.61;130409;1267;109030;-73
2022/05/18 00:34:46;;;;;;;2.20;1.10;;;;;;;6.26;42.21;101168.29;130410;1266;107658;-74
2022/05/18 00:37:52;;;;;;;2.10;1.10;;;;;;;6.19;42.26;101170.41;130327;1267;108362;-71
2022/05/18 00:40:58;;;;;;;2.90;0.90;;;;;;;6.12;42.49;101173.70;130227;1266;108743;-71
2022/05/18 00:44:05;;;;;;;1.80;0.90;;;;;;;6.04;42.65;101179.89;130240;1267;108747;-71
2022/05/18 00:47:10;;;;;;;2.00;0.90;;;;;;;5.92;42.63;101188.17;130226;1267;108760;-71
2022/05/18 00:50:21;;;;;;;1.70;1.00;;;;;;;5.83;42.89;101187.86;130374;1267;108994;-71
2022/05/18 00:53:31;;;;;;;1.60;1.10;;;;;;;5.76;42.89;101189.76;130361;1267;108780;-72
2022/05/18 00:56:43;;;;;;;1.40;1.10;;;;;;;5.64;43.12;101195.81;130193;1267;108710;-71
2022/05/18 00:59:53;;;;;;;1.40;0.90;;;;;;;5.56;43.26;101204.80;130322;1267;108668;-72
2022/05/18 01:03:09;;;;;;;2.30;1.30;;;;;;;5.49;43.24;101202.74;130389;1267;108673;-71
2022/05/18 01:06:21;;;;;;;1.90;1.00;;;;;;;5.40;43.25;101206.15;130325;1267;109051;-72
2022/05/18 01:09:30;;;;;;;1.50;0.90;;;;;;;5.32;43.52;101214.96;130321;1267;108865;-72
2022/05/18 01:12:36;;;;;;;2.60;1.20;;;;;;;5.25;43.55;101216.42;130307;1267;108779;-74
2022/05/18 01:15:42;;;;;;;2.10;1.00;;;;;;;5.20;43.50;101224.73;130302;1267;108968;-72
2022/05/18 01:18:49;;;;;;;2.60;1.10;;;;;;;5.10;43.76;101232.88;130149;1265;108580;-73
2022/05/18 01:22:00;;;;;;;1.70;1.00;;;;;;;5.04;43.72;101232.58;130344;1267;108778;-72
2022/05/18 01:25:25;;;;;;;1.60;1.00;;;;;;;4.97;43.88;101242.17;130404;1267;108691;-71
2022/05/18 01:28:37;;;;;;;2.50;1.30;;;;;;;4.88;44.09;101240.89;130300;1267;108792;-72
2022/05/18 01:31:51;;;;;;;2.30;1.10;;;;;;;4.81;44.18;101245.05;130342;1267;108934;-73
2022/05/18 01:34:57;;;;;;;2.70;1.10;;;;;;;4.74;44.25;101243.91;130341;1267;108735;-71
2022/05/18 01:38:03;;;;;;;1.70;1.00;;;;;;;4.66;44.35;101243.98;130262;1267;107127;-72
2022/05/18 01:41:15;;;;;;;1.50;1.00;;;;;;;4.60;44.34;101247.67;130311;1267;108879;-73
2022/05/18 01:44:21;;;;;;;2.00;1.20;;;;;;;4.55;44.47;101246.20;130303;1267;108817;-75
2022/05/18 01:47:32;;;;;;;1.90;1.10;;;;;;;4.51;44.55;101247.32;130327;1267;107640;-74
2022/05/18 01:50:38;;;;;;;2.50;1.30;;;;;;;4.46;44.53;101245.85;130307;1267;108829;-74
2022/05/18 01:53:44;;;;;;;2.60;1.20;;;;;;;4.40;44.70;101247.66;130313;1267;108699;-73
2022/05/18 01:56:50;;;;;;;3.30;1.60;;;;;;;4.33;44.65;101251.38;130306;1267;108702;-72
2022/05/18 01:59:55;;;;;;;2.90;1.10;;;;;;;4.26;44.78;101253.52;130388;1266;108929;-73
2022/05/18 02:03:02;;;;;;;1.90;1.30;;;;;;;4.22;44.96;101258.35;130291;1267;108769;-72
2022/05/18 02:06:08;;;;;;;2.10;1.20;;;;;;;4.17;44.90;101259.84;130296;1266;107705;-72
2022/05/18 02:09:16;;;;;;;1.70;1.20;;;;;;;4.13;44.93;101260.95;130300;1266;108782;-73
2022/05/18 02:12:22;;;;;;;2.70;1.30;;;;;;;4.08;44.97;101264.61;130371;1267;108780;-74
2022/05/18 02:15:28;;;;;;;2.20;1.00;;;;;;;4.03;45.07;101268.21;130291;1266;108853;-74
2022/05/18 02:18:33;;;;;;;2.40;1.60;;;;;;;4.01;45.27;101268.66;130333;1267;108777;-73
2022/05/18 02:21:39;;;;;;;3.00;1.10;;;;;;;3.94;45.22;101269.94;130318;1267;107367;-73
2022/05/18 02:24:44;;;;;;;2.20;1.10;;;;;;;3.87;45.36;101266.65;130319;1267;108840;-75
2022/05/18 02:27:50;;;;;;;2.50;1.30;;;;;;;3.82;45.59;101268.48;130298;1268;108772;-74
2022/05/18 02:30:56;;;;;;;3.60;1.40;;;;;;;3.79;45.52;101275.17;130318;1267;109157;-74
2022/05/18 02:34:01;;;;;;;1.70;1.10;;;;;;;3.74;45.72;101273.13;130307;1267;108775;-74
2022/05/18 02:37:07;;;;;;;3.10;1.60;;;;;;;3.72;45.72;101271.86;130327;1267;108837;-73
2022/05/18 02:40:13;;;;;;;2.40;1.30;;;;;;;3.71;45.74;101271.73;130301;1267;108648;-75
2022/05/18 02:43:19;;;;;;;2.40;1.20;;;;;;;3.70;45.94;101272.52;130320;1267;108827;-74
2022/05/18 02:46:25;;;;;;;1.70;1.20;;;;;;;3.68;45.97;101271.92;130389;1267;108903;-75
2022/05/18 02:49:31;;;;;;;2.40;1.40;;;;;;;3.62;45.96;101271.16;130352;1267;106822;-71
2022/05/18 02:52:37;;;;;;;2.10;1.50;;;;;;;3.60;46.11;101268.09;130335;1267;108986;-72
2022/05/18 02:59:07;;;;;;;3.20;1.60;;;;;;;3.61;46.41;101274.77;130300;1267;107662;-71
2022/05/18 03:02:13;;;;;;;7.90;3.40;;;;;;;3.57;46.38;101280.56;130351;1267;107953;-71
2022/05/18 03:05:18;;;;;;;8.10;4.80;;;;;;;3.58;46.59;101284.42;130370;1266;109067;-74
2022/05/18 03:08:24;;;;;;;10.50;6.00;;;;;;;3.58;46.55;101286.34;130281;1267;108686;-79
2022/05/18 03:11:29;;;;;;;8.40;5.40;;;;;;;3.58;46.59;101286.69;130342;1267;107696;-70
2022/05/18 03:14:35;;;;;;;53.10;28.30;;;;;;;3.58;46.76;101289.33;130239;1267;108689;-72
2022/05/18 03:17:42;;;;;;;36.90;19.60;;;;;;;3.60;46.66;101292.58;130356;1267;108995;-72
2022/05/18 03:24:11;;;;;;;22.20;11.70;;;;;;;3.62;46.94;101300.90;130362;1267;108796;-73
2022/05/18 03:27:17;;;;;;;20.70;11.10;;;;;;;3.64;46.90;101305.77;130458;1267;108738;-72
2022/05/18 03:30:22;;;;;;;15.90;7.70;;;;;;;3.66;46.99;101316.36;130360;1267;109266;-71
2022/05/18 03:33:28;;;;;;;18.50;8.20;;;;;;;3.75;46.94;101325.58;130301;1266;108968;-72
2022/05/18 03:36:33;;;;;;;30.50;11.70;;;;;;;3.92;47.11;101329.70;130327;1267;107040;-71
2022/05/18 03:39:39;;;;;;;14.90;5.60;;;;;;;4.15;47.10;101333.95;130349;1267;107660;-73
2022/05/18 03:42:44;;;;;;;10.10;3.50;;;;;;;4.30;47.20;101337.83;130334;1267;107555;-72
2022/05/18 03:45:50;;;;;;;5.80;2.90;;;;;;;4.50;47.19;101340.95;130328;1267;108846;-73
2022/05/18 03:48:55;;;;;;;6.80;2.80;;;;;;;4.77;47.14;101343.47;130021;1267;447716;-72
2022/05/18 03:52:01;;;;;;;6.70;2.90;;;;;;;5.11;47.08;101344.48;130345;1267;107350;-72
2022/05/18 03:55:08;;;;;;;7.60;3.40;;;;;;;5.51;47.16;101352.67;130313;1267;108675;-72
2022/05/18 03:58:15;;;;;;;6.80;3.30;;;;;;;5.88;46.84;101354.48;130364;1267;108850;-72
2022/05/18 04:01:20;;;;;;;8.40;3.90;;;;;;;6.19;46.86;101357.32;130350;1267;108915;-71
2022/05/18 04:04:26;;;;;;;7.40;3.40;;;;;;;6.51;47.04;101353.11;130350;1267;108893;-72
2022/05/18 04:07:31;;;;;;;8.90;4.30;;;;;;;6.84;46.99;101357.48;130328;1266;107494;-73
2022/05/18 04:10:39;;;;;;;8.90;4.30;;;;;;;7.17;46.66;101357.96;130384;1267;108489;-72
2022/05/18 04:13:44;;;;;;;6.30;3.10;;;;;;;7.48;46.72;101355.70;130363;1266;108355;-71
2022/05/18 04:16:50;;;;;;;5.20;3.10;;;;;;;7.72;46.60;101354.69;130343;1267;108738;-73
2022/05/18 04:19:56;;;;;;;4.50;2.80;;;;;;;7.91;46.57;101357.13;130321;1267;108665;-72
2022/05/18 04:23:02;;;;;;;6.80;2.70;;;;;;;8.10;46.74;101356.65;130358;1267;108711;-73
2022/05/18 04:26:08;;;;;;;4.70;2.80;;;;;;;8.24;46.66;101356.39;130282;1267;108746;-74
2022/05/18 04:29:13;;;;;;;4.60;2.90;;;;;;;8.37;46.60;101360.42;130324;1267;108738;-73
2022/05/18 04:32:20;;;;;;;4.70;2.60;;;;;;;8.57;46.60;101358.98;130373;1267;108827;-73
2022/05/18 04:35:28;;;;;;;3.60;2.40;;;;;;;8.69;46.60;101356.10;130428;1267;108659;-72
2022/05/18 04:38:34;;;;;;;4.40;2.30;;;;;;;8.78;46.59;101361.48;130309;1268;108695;-71
2022/05/18 04:41:40;;;;;;;4.30;2.10;;;;;;;8.82;46.62;101360.98;130598;1267;108762;-70
2022/05/18 04:44:45;;;;;;;3.30;2.30;;;;;;;8.93;46.32;101363.04;130415;1267;109112;-72
2022/05/18 04:47:52;;;;;;;7.20;2.30;;;;;;;9.04;46.53;101369.48;130443;1266;106754;-72
2022/05/18 04:50:57;;;;;;;3.20;2.00;;;;;;;9.10;46.46;101377.38;130393;1267;107695;-72
2022/05/18 04:54:03;;;;;;;3.70;2.00;;;;;;;9.20;46.22;101383.76;130325;1266;108770;-70
2022/05/18 04:57:09;;;;;;;3.80;1.90;;;;;;;9.25;46.36;101390.98;130176;1267;108911;-69
2022/05/18 05:00:17;;;;;;;3.30;2.00;;;;;;;9.18;46.25;101394.34;130382;1267;108748;-72
2022/05/18 05:03:22;;;;;;;4.70;2.10;;;;;;;9.21;46.48;101404.05;130349;1267;108669;-71
2022/05/18 05:06:28;;;;;;;4.20;2.20;;;;;;;9.26;46.45;101410.45;130271;1267;108800;-73
2022/05/18 05:09:33;;;;;;;3.20;1.90;;;;;;;9.33;46.60;101412.38;130321;1267;108621;-70
2022/05/18 05:12:39;;;;;;;2.50;1.60;;;;;;;9.39;46.33;101412.29;130181;1267;108867;-70
2022/05/18 05:15:46;;;;;;;2.50;1.40;;;;;;;9.37;46.49;101413.13;130231;1266;109771;-69
2022/05/18 05:18:51;;;;;;;4.80;1.60;;;;;;;9.42;46.33;101414.33;130209;1267;109064;-70
2022/05/18 05:21:57;;;;;;;3.20;1.60;;;;;;;9.64;46.16;101419.80;130234;1267;108700;-70
2022/05/18 05:25:03;;;;;;;2.90;1.70;;;;;;;9.73;46.13;101421.42;130218;1267;108586;-71
2022/05/18 05:28:10;;;;;;;2.60;1.40;;;;;;;9.76;46.29;101424.95;130281;1267;108892;-71
2022/05/18 05:31:16;;;;;;;3.90;1.90;;;;;;;9.76;46.43;101427.89;130281;1267;108687;-70
2022/05/18 05:34:21;;;;;;;2.80;1.60;;;;;;;9.84;46.40;101435.64;130374;1267;109076;-70
2022/05/18 05:37:27;;;;;;;3.10;1.50;;;;;;;9.89;46.27;101434.91;130225;1266;108943;-70
2022/05/18 05:40:32;;;;;;;3.30;1.40;;;;;;;9.99;46.27;101437.17;130246;1265;108685;-69
2022/05/18 05:43:39;;;;;;;3.30;1.50;;;;;;;10.03;46.11;101439.72;130280;1267;108916;-69
2022/05/18 05:46:46;;;;;;;3.10;1.30;;;;;;;10.01;46.09;101443.58;130280;1267;108665;-70
2022/05/18 05:49:53;;;;;;;2.00;1.40;;;;;;;10.14;46.08;101450.54;130257;1267;108712;-69
2022/05/18 05:52:58;;;;;;;2.80;1.40;;;;;;;10.21;46.09;101449.47;130267;1267;108659;-69
2022/05/18 05:56:04;;;;;;;2.70;1.60;;;;;;;10.24;46.27;101451.91;130389;1267;107658;-69
2022/05/18 05:59:10;;;;;;;3.70;1.50;;;;;;;10.15;46.04;101450.11;130273;1266;108789;-70
2022/05/18 06:02:16;;;;;;;2.40;1.20;;;;;;;10.14;46.17;101454.13;130250;1267;108744;-70
2022/05/18 06:05:22;;;;;;;5.70;1.40;;;;;;;10.20;46.04;101450.59;130403;1266;107614;-69
2022/05/18 06:08:28;;;;;;;3.90;1.50;;;;;;;10.19;46.21;101451.19;130428;1267;108809;-69
2022/05/18 06:11:33;;;;;;;6.20;1.40;;;;;;;10.21;46.20;101455.10;130392;1266;108746;-69
2022/05/18 06:14:39;;;;;;;4.60;2.30;;;;;;;10.23;46.22;101455.73;130300;1266;109127;-69
2022/05/18 06:17:45;;;;;;;4.30;1.20;;;;;;;10.28;46.22;101459.20;130243;1267;108953;-69
2022/05/18 06:20:51;;;;;;;3.20;1.60;;;;;;;10.41;46.23;101461.98;130267;1267;108736;-69
2022/05/18 06:23:56;;;;;;;5.80;1.60;;;;;;;10.48;46.22;101459.30;130249;1266;108981;-69
2022/05/18 06:27:02;;;;;;;3.40;1.50;;;;;;;10.45;46.16;101465.61;130393;1266;108562;-69
2022/05/18 06:30:10;;;;;;;3.60;1.60;;;;;;;10.47;45.89;101468.97;130446;1266;107455;-70
2022/05/18 06:33:16;;;;;;;2.80;1.30;;;;;;;10.51;45.81;101468.28;130341;1265;108768;-70
2022/05/18 06:36:21;;;;;;;4.60;1.40;;;;;;;10.64;45.79;101464.45;130225;1267;108868;-70
2022/05/18 06:39:26;;;;;;;3.30;1.30;;;;;;;10.78;46.27;101465.73;130221;1267;107464;-70
2022/05/18 06:42:33;;;;;;;3.20;1.50;;;;;;;10.95;45.96;101463.89;130256;1267;108825;-70
2022/05/18 06:45:39;;;;;;;3.00;1.40;;;;;;;11.10;45.80;101466.94;130223;1267;108826;-71
2022/05/18 06:48:44;;;;;;;2.80;1.60;;;;;;;11.18;45.57;101470.66;130245;1267;108839;-70
2022/05/18 06:51:50;;;;;;;2.30;1.40;;;;;;;11.09;45.38;101473.38;130270;1267;108782;-70
2022/05/18 06:54:55;;;;;;;3.40;1.30;;;;;;;11.13;45.59;101481.11;130283;1267;108673;-71
2022/05/18 06:58:01;;;;;;;2.60;1.60;;;;;;;11.25;45.45;101484.35;130265;1267;108968;-71
2022/05/18 07:01:07;;;;;;;2.50;1.10;;;;;;;11.31;45.21;101486.36;130365;1267;109092;-70
2022/05/18 07:04:14;;;;;;;4.10;1.30;;;;;;;11.40;44.89;101491.27;130186;1267;108647;-72
2022/05/18 07:07:20;;;;;;;1.80;1.00;;;;;;;11.44;44.49;101496.86;130177;1267;108694;-70
2022/05/18 07:10:28;;;;;;;3.30;1.30;;;;;;;11.43;44.67;101501.26;130208;1267;108422;-69
2022/05/18 07:13:34;;;;;;;4.40;1.10;;;;;;;11.53;44.99;101501.77;130281;1267;108634;-70
2022/05/18 07:16:40;;;;;;;1.90;1.00;;;;;;;11.57;43.87;101504.16;130258;1267;107697;-69
2022/05/18 07:19:45;;;;;;;1.80;0.90;;;;;;;11.55;43.91;101502.90;130239;1267;108702;-70
2022/05/18 07:22:51;;;;;;;2.40;1.10;;;;;;;11.54;44.12;101504.59;130471;1266;107450;-69
2022/05/18 07:25:58;;;;;;;1.50;1.00;;;;;;;11.66;44.21;101501.45;130468;1267;108713;-69
2022/05/18 07:29:06;;;;;;;2.90;0.90;;;;;;;11.76;43.30;101500.23;130243;1267;108690;-69
2022/05/18 07:32:16;;;;;;;1.90;1.00;;;;;;;11.76;42.60;101502.86;130163;1267;108751;-72
2022/05/18 07:35:21;;;;;;;2.80;1.10;;;;;;;11.81;43.52;101499.10;130230;1267;108644;-69
2022/05/18 07:38:30;;;;;;;1.90;0.90;;;;;;;11.94;42.37;101501.38;130229;1267;108451;-70
2022/05/18 07:41:36;;;;;;;3.30;1.00;;;;;;;12.01;41.87;101499.05;130315;1267;108805;-73
2022/05/18 07:44:42;;;;;;;2.80;1.10;;;;;;;12.01;42.43;101499.16;130223;1267;108714;-71
2022/05/18 07:47:48;;;;;;;3.80;0.90;;;;;;;12.08;41.62;101497.38;130275;1266;107498;-70
2022/05/18 07:50:53;;;;;;;3.40;0.90;;;;;;;12.05;40.07;101497.79;130228;1267;108780;-71
2022/05/18 07:53:59;;;;;;;2.40;0.90;;;;;;;11.98;41.04;101498.58;130270;1266;107551;-70
2022/05/18 07:57:09;;;;;;;3.10;2.40;;;;;;;12.01;40.90;101503.71;130311;1266;108796;-70
2022/05/18 08:00:17;;;;;;;3.50;2.00;;;;;;;12.04;41.14;101500.70;130351;1267;108779;-70
2022/05/18 08:03:23;;;;;;;1.90;1.10;;;;;;;12.13;41.61;101498.17;130314;1267;108783;-72
2022/05/18 08:06:28;;;;;;;4.10;1.20;;;;;;;12.26;41.76;101493.82;130298;1267;108773;-71
2022/05/18 08:15:05;;;;;;;1.20;0.80;;;;;;;12.41;41.65;101495.77;130399;1267;108877;-72
2022/05/18 08:16:24;;;;;;;4.40;1.20;;;;;;;12.42;40.34;101496.42;130340;1268;108746;-72
2022/05/18 08:19:30;;;;;;;2.50;0.90;;;;;;;12.47;40.93;101499.66;130306;1268;108565;-71
2022/05/18 08:22:35;;;;;;;2.80;1.00;;;;;;;12.58;40.31;101496.93;130262;1266;107828;-71
2022/05/18 08:25:43;;;;;;;1.20;1.00;;;;;;;12.62;39.93;101497.09;130162;1267;109122;-70
2022/05/18 08:28:49;;;;;;;4.50;1.30;;;;;;;12.68;39.74;101493.40;130265;1266;108715;-71
2022/05/18 08:31:56;;;;;;;1.50;0.90;;;;;;;12.68;40.36;101494.28;130215;1268;108752;-72
2022/05/18 08:35:01;;;;;;;2.50;1.20;;;;;;;12.82;39.44;101488.88;130351;1267;108633;-71
2022/05/18 08:38:07;;;;;;;1.30;1.00;;;;;;;12.82;38.30;101489.75;130350;1267;108776;-70
2022/05/18 08:41:16;;;;;;;1.70;1.00;;;;;;;12.77;38.25;101491.33;130367;1267;108677;-71
2022/05/18 08:44:31;;;;;;;2.10;1.00;;;;;;;12.83;39.75;101483.95;130340;1267;108663;-73
2022/05/18 08:47:43;;;;;;;2.80;1.00;;;;;;;13.02;39.14;101486.78;130338;1267;108558;-72
2022/05/18 08:50:51;;;;;;;2.10;1.30;;;;;;;13.02;37.88;101490.52;130373;1267;107591;-70
2022/05/18 08:54:07;;;;;;;2.30;1.00;;;;;;;12.96;37.36;101486.52;130325;1267;108832;-71
2022/05/18 08:57:20;;;;;;;1.80;1.00;;;;;;;13.06;38.62;101487.14;130442;1267;108603;-72
2022/05/18 09:00:26;;;;;;;;;;;;;;;13.23;38.49;101488.44;130478;1266;108623;-71
2022/05/18 09:03:37;;;;;;;1.80;1.00;;;;;;;13.30;37.86;101486.40;130451;1267;108841;-72
2022/05/18 09:06:50;;;;;;;1.90;1.00;;;;;;;13.41;38.08;101481.66;130586;1267;108724;-75
2022/05/18 09:10:13;;;;;;;1.70;0.90;;;;;;;13.44;37.46;101477.73;130524;1267;107849;-75
2022/05/18 09:13:19;;;;;;;4.40;1.10;;;;;;;13.48;38.05;101477.77;130295;1267;108680;-75
2022/05/18 09:16:34;;;;;;;1.60;1.00;;;;;;;13.62;37.28;101480.94;130424;1267;108645;-73
2022/05/18 09:19:50;;;;;;;2.60;1.30;;;;;;;13.70;37.53;101483.20;130459;1267;108883;-75
2022/05/18 09:23:19;;;;;;;2.40;0.90;;;;;;;13.80;37.39;101477.64;130455;1267;108916;-74
2022/05/18 09:26:39;;;;;;;2.50;1.00;;;;;;;13.97;37.81;101471.39;130419;1267;108612;-73
2022/05/18 09:29:52;;;;;;;2.00;0.90;;;;;;;14.07;36.28;101477.08;130416;1266;107581;-71
2022/05/18 09:33:24;;;;;;;2.20;0.90;;;;;;;14.10;37.18;101474.27;130354;1267;108744;-72
2022/05/18 09:36:53;;;;;;;5.00;0.90;;;;;;;14.18;37.23;101467.14;130415;1267;107740;-71
2022/05/18 09:40:06;;;;;;;1.30;1.00;;;;;;;14.20;37.50;101462.81;130371;1267;108639;-72
2022/05/18 09:43:17;;;;;;;1.90;0.90;;;;;;;14.30;36.24;101465.06;130382;1267;108989;-72
2022/05/18 09:46:27;;;;;;;1.60;0.90;;;;;;;14.30;36.67;101462.49;130388;1267;108675;-72
2022/05/18 09:49:38;;;;;;;2.20;0.90;;;;;;;14.36;36.60;101462.66;130433;1267;108985;-74
2022/05/18 09:52:46;;;;;;;2.30;1.10;;;;;;;14.39;35.79;101468.84;130636;1266;108965;-72
2022/05/18 09:55:52;;;;;;;2.50;1.10;;;;;;;14.36;35.70;101469.09;130924;1266;109088;-71
2022/05/18 09:59:02;;;;;;;1.60;1.10;;;;;;;14.38;37.43;101464.06;130400;1266;108655;-71
2022/05/18 10:09:17;;;;;;;3.00;1.10;;;;;;;14.65;36.62;101461.00;130514;1267;107325;-70
2022/05/18 10:12:32;;;;;;;1.90;1.20;;;;;;;14.73;36.15;101460.00;130527;1267;108655;-71
2022/05/18 10:15:42;;;;;;;2.20;1.20;;;;;;;14.78;36.29;101452.78;130546;1267;108910;-70
2022/05/18 10:18:52;;;;;;;3.30;1.40;;;;;;;14.89;36.62;101452.16;130408;1266;108704;-71
2022/05/18 10:22:02;;;;;;;2.50;1.10;;;;;;;14.94;36.34;101452.08;130453;1265;108788;-72
2022/05/18 10:25:11;;;;;;;2.60;1.10;;;;;;;15.00;36.96;101442.70;130494;1267;108957;-71
2022/05/18 10:28:22;;;;;;;2.50;1.30;;;;;;;15.06;35.66;101441.36;130383;1267;108797;-73
2022/05/18 10:31:33;;;;;;;2.70;1.20;;;;;;;15.08;35.78;101437.90;130472;1267;108873;-72
2022/05/18 10:34:45;;;;;;;2.20;1.20;;;;;;;15.12;35.60;101437.90;130500;1266;108842;-71
2022/05/18 10:37:51;;;;;;;4.50;1.40;;;;;;;15.09;35.24;101444.05;130401;1266;108896;-71
2022/05/18 10:41:13;;;;;;;2.60;1.10;;;;;;;15.09;35.10;101444.40;130406;1266;109165;-71
2022/05/18 10:44:21;;;;;;;;;;;;;;;15.12;35.39;101433.04;130369;1267;107860;-71
2022/05/18 10:47:34;;;;;;;2.10;1.20;;;;;;;15.21;35.07;101432.84;130355;1265;108775;-71
2022/05/18 10:50:41;;;;;;;3.10;1.30;;;;;;;15.30;35.40;101429.82;130376;1267;108659;-71
2022/05/18 10:53:48;;;;;;;2.00;1.00;;;;;;;15.39;35.58;101426.18;130467;1267;108652;-70
2022/05/18 10:56:59;;;;;;;1.50;1.00;;;;;;;15.50;35.76;101428.19;130458;1267;107197;-71
2022/05/18 11:00:12;;;;;;;1.40;0.90;;;;;;;15.61;35.06;101424.52;130400;1267;108755;-71
2022/05/18 11:03:23;;;;;;;3.10;1.20;;;;;;;15.59;34.53;101429.38;130428;1266;108631;-71
2022/05/18 11:06:33;;;;;;;6.10;1.10;;;;;;;15.59;34.84;101428.10;130428;1267;107690;-72
2022/05/18 11:09:40;;;;;;;4.10;1.10;;;;;;;15.62;34.34;101426.00;130429;1267;109002;-73
2022/05/18 11:12:51;;;;;;;1.90;1.00;;;;;;;15.62;35.09;101421.73;130472;1267;108731;-72
2022/05/18 11:16:09;;;;;;;1.80;0.90;;;;;;;15.69;34.50;101420.02;130374;1267;108984;-71
2022/05/18 11:19:31;;;;;;;2.30;0.70;;;;;;;15.75;34.62;101413.77;130346;1267;107728;-72
2022/05/18 11:22:47;;;;;;;2.10;1.10;;;;;;;15.86;34.37;101408.13;130442;1266;107313;-72
2022/05/18 11:26:02;;;;;;;2.10;1.00;;;;;;;15.86;33.21;101408.83;130375;1267;107657;-72
2022/05/18 11:29:25;;;;;;;2.10;1.10;;;;;;;15.84;33.42;101410.16;130440;1266;108660;-72
2022/05/18 11:32:39;;;;;;;2.10;1.20;;;;;;;15.94;33.80;101409.65;130458;1267;108688;-72
2022/05/18 11:35:54;;;;;;;2.80;0.90;;;;;;;16.03;34.03;101410.81;130378;1267;108706;-72
2022/05/18 11:39:08;;;;;;;1.80;1.10;;;;;;;16.04;31.82;101410.58;130473;1267;108844;-72
2022/05/18 11:42:26;;;;;;;2.90;0.80;;;;;;;15.97;32.89;101406.23;130459;1267;109078;-71
2022/05/18 11:45:39;;;;;;;1.20;0.80;;;;;;;15.99;32.78;101404.66;130449;1267;108658;-73
2022/05/18 11:48:52;;;;;;;4.20;0.80;;;;;;;15.99;32.42;101405.89;130385;1267;108836;-71
2022/05/18 11:52:15;;;;;;;2.40;0.90;;;;;;;16.01;32.05;101406.36;130365;1267;108936;-71
2022/05/18 11:55:32;;;;;;;2.00;0.80;;;;;;;15.97;32.19;101402.54;130468;1267;108844;-70
2022/05/18 11:58:52;;;;;;;2.60;0.80;;;;;;;16.05;32.27;101408.61;130361;1267;108901;-70
2022/05/18 12:02:10;;;;;;;1.10;0.70;;;;;;;16.13;32.60;101407.83;130487;1267;108648;-71
2022/05/18 12:05:44;;;;;;;2.90;0.80;;;;;;;16.22;32.89;101402.11;130372;1267;108572;-72
2022/05/18 12:09:31;;;;;;;2.80;0.70;;;;;;;16.34;32.42;101398.45;130461;1266;108901;-71
2022/05/18 12:12:45;;;;;;;1.40;0.70;;;;;;;16.39;31.13;101410.13;130420;1266;108672;-72
2022/05/18 12:15:57;;;;;;;1.80;0.70;;;;;;;16.34;31.63;101404.25;130514;1267;108821;-72
2022/05/18 12:19:08;;;;;;;1.20;0.80;;;;;;;16.37;30.36;101406.00;130502;1267;108734;-72
2022/05/18 12:22:16;;;;;;;1.60;0.60;;;;;;;16.32;29.95;101402.98;130321;1267;108794;-71
2022/05/18 12:25:24;;;;;;;1.80;0.90;;;;;;;16.27;29.19;101400.81;130381;1267;108778;-71
2022/05/18 12:28:32;;;;;;;2.30;1.00;;;;;;;16.32;31.04;101392.92;130457;1267;108889;-72
2022/05/18 12:31:39;;;;;;;1.80;0.90;;;;;;;16.46;30.50;101389.66;130418;1266;108641;-71
2022/05/18 12:35:02;;;;;;;2.20;0.70;;;;;;;16.51;29.94;101384.44;130483;1267;108733;-71
2022/05/18 12:38:13;;;;;;;2.40;0.70;;;;;;;16.52;28.53;101385.10;130321;1267;108668;-72
2022/05/18 12:41:21;;;;;;;4.20;0.90;;;;;;;16.50;28.12;101373.22;130465;1267;108688;-72
2022/05/18 12:44:37;;;;;;;3.40;0.70;;;;;;;16.54;28.32;101374.43;130459;1267;108988;-71
2022/05/18 12:47:48;;;;;;;2.50;0.90;;;;;;;16.54;28.73;101367.46;130251;1267;108518;-70
2022/05/18 12:51:04;;;;;;;2.40;0.80;;;;;;;16.55;29.98;101367.96;130250;1267;108592;-73
2022/05/18 12:54:26;;;;;;;1.50;0.90;;;;;;;16.58;30.06;101361.23;130349;1267;107533;-73
2022/05/18 12:57:51;;;;;;;1.30;0.80;;;;;;;16.67;30.28;101358.06;130283;1267;108799;-71
2022/05/18 13:01:07;;;;;;;1.70;1.10;;;;;;;16.80;30.30;101355.63;130358;1267;108795;-71
2022/05/18 13:04:40;;;;;;;1.80;0.80;;;;;;;16.85;29.08;101355.82;130186;1267;108653;-71
2022/05/18 13:07:46;;;;;;;1.90;0.80;;;;;;;16.90;28.76;101356.20;130217;1266;109209;-71
2022/05/18 13:11:15;;;;;;;3.60;0.90;;;;;;;16.85;27.31;101350.08;130267;1267;108659;-72
2022/05/18 13:14:36;;;;;;;3.00;0.80;;;;;;;16.82;27.67;101344.98;130254;1267;108863;-73
2022/05/18 13:17:51;;;;;;;1.40;0.70;;;;;;;16.84;27.49;101344.25;130244;1266;108717;-72
2022/05/18 13:21:15;;;;;;;0.90;0.60;;;;;;;16.86;28.38;101342.54;130347;1267;108949;-71
2022/05/18 13:24:29;;;;;;;1.50;0.80;;;;;;;16.94;27.85;101342.95;130361;1267;108941;-71
2022/05/18 13:27:45;;;;;;;2.20;1.30;;;;;;;17.01;28.09;101344.60;130496;1267;108706;-71
2022/05/18 13:30:55;;;;;;;1.00;0.80;;;;;;;17.03;27.68;101336.75;130534;1267;108825;-72
2022/05/18 13:34:07;;;;;;;3.00;0.80;;;;;;;17.05;28.19;101334.25;130422;1267;108771;-71
2022/05/18 13:37:14;;;;;;;1.80;0.70;;;;;;;17.14;27.72;101335.80;130393;1267;108726;-71
2022/05/18 13:40:22;;;;;;;1.70;0.80;;;;;;;17.19;27.84;101331.61;130389;1266;108743;-71
2022/05/18 13:43:31;;;;;;;0.90;0.60;;;;;;;17.24;27.94;101327.97;130383;1267;108567;-70
2022/05/18 13:46:37;;;;;;;3.50;0.60;;;;;;;17.27;27.89;101324.46;130422;1267;108739;-71
2022/05/18 13:49:44;;;;;;;2.10;0.70;;;;;;;17.24;27.02;101324.34;130383;1267;108857;-71
2022/05/18 13:52:51;;;;;;;1.70;0.70;;;;;;;17.29;27.52;101318.98;130385;1266;108806;-71
2022/05/18 13:56:04;;;;;;;0.90;0.60;;;;;;;17.26;26.12;101322.67;130395;1267;108721;-71
2022/05/18 13:59:16;;;;;;;1.20;0.60;;;;;;;17.27;26.97;101318.33;130448;1267;108669;-71
2022/05/18 14:02:24;;;;;;;2.80;0.80;;;;;;;17.33;26.95;101311.88;130392;1266;109130;-71
2022/05/18 14:05:34;;;;;;;1.00;0.50;;;;;;;17.33;26.00;101307.92;130461;1267;108932;-72
2022/05/18 14:08:43;;;;;;;1.80;0.80;;;;;;;17.31;25.18;101310.92;130395;1267;108789;-71
2022/05/18 14:11:49;;;;;;;4.30;0.70;;;;;;;17.32;26.96;101306.81;130441;1267;108866;-71
2022/05/18 14:14:54;;;;;;;1.60;0.70;;;;;;;17.36;26.66;101301.71;130387;1267;108733;-71
2022/05/18 14:18:01;;;;;;;3.20;0.70;;;;;;;17.36;26.75;101298.48;130266;1266;108835;-70
2022/05/18 14:21:10;;;;;;;1.30;0.70;;;;;;;17.39;26.63;101296.72;130252;1267;108646;-72
2022/05/18 14:24:22;;;;;;;4.00;1.20;;;;;;;17.39;25.89;101293.44;130401;1267;108744;-71
2022/05/18 14:27:33;;;;;;;2.10;0.60;;;;;;;17.40;26.13;101293.14;130423;1266;108323;-70
2022/05/18 14:30:43;;;;;;;2.30;0.80;;;;;;;17.39;26.47;101289.67;130319;1267;108847;-71
2022/05/18 14:33:52;;;;;;;1.90;0.90;;;;;;;17.40;25.88;101291.35;130359;1267;108682;-72
2022/05/18 14:36:59;;;;;;;2.30;0.80;;;;;;;17.42;26.23;101290.00;130512;1267;109046;-74
2022/05/18 14:40:10;;;;;;;1.70;0.70;;;;;;;17.44;25.73;101284.46;130387;1266;107687;-75